Dot Lake, Alaska
Current Conditions -  °F | °C
As of 11:53 PM on Thursday 27 Nov 2014 (Local Time) from PABI Reporting Station
Light Snow Light Snow  
Wind Chill: -17°   Ceiling: Unl
Heat Index:   Visibility: 10mi
Dew Point:   Wind: 29mph
Humidity: 76%   Direction: 120°ESE
Pressure: 30.16"   Gusts: 33mph
Location:  63.724°N, 145.666°W
Report Text: PABI 280853Z AUTO 12025G29KT 10SM -SN CLR M14/M18 A3016 RMK AO2 PK WND 11030/0813 SNB15E30B53 SLP260 P0000 60000 T11441178 411331272 56006 TSNO
Loading
Personal Weather Stations






























Interactive Weather Map New forecast layout! Learn more

10-Day Weather Forecast

Advertisements
Track Severe Weather on mobile